sensor_id;sensor_type;location;lat;lon;timestamp;P1;durP1;ratioP1;P2;durP2;ratioP2
11006;SDS011;8186;57.652;11.968;2023-10-19T00:01:08;1.10;;;0.70;;
11006;SDS011;8186;57.652;11.968;2023-10-19T00:03:35;0.70;;;0.70;;
11006;SDS011;8186;57.652;11.968;2023-10-19T00:06:02;2.60;;;0.80;;
11006;SDS011;8186;57.652;11.968;2023-10-19T00:08:28;1.07;;;0.70;;
11006;SDS011;8186;57.652;11.968;2023-10-19T00:11:01;0.80;;;0.80;;
11006;SDS011;8186;57.652;11.968;2023-10-19T00:13:29;0.60;;;0.60;;
11006;SDS011;8186;57.652;11.968;2023-10-19T00:15:57;1.10;;;0.77;;
11006;SDS011;8186;57.652;11.968;2023-10-19T00:18:24;0.93;;;0.70;;
11006;SDS011;8186;57.652;11.968;2023-10-19T00:20:53;1.53;;;0.90;;
11006;SDS011;8186;57.652;11.968;2023-10-19T00:23:24;2.73;;;0.80;;
11006;SDS011;8186;57.652;11.968;2023-10-19T00:25:56;1.17;;;0.73;;
11006;SDS011;8186;57.652;11.968;2023-10-19T00:28:22;0.70;;;0.70;;
11006;SDS011;8186;57.652;11.968;2023-10-19T00:30:51;0.73;;;0.70;;
11006;SDS011;8186;57.652;11.968;2023-10-19T00:33:18;0.80;;;0.73;;
11006;SDS011;8186;57.652;11.968;2023-10-19T00:35:48;1.00;;;0.90;;
11006;SDS011;8186;57.652;11.968;2023-10-19T00:38:25;1.97;;;0.93;;
11006;SDS011;8186;57.652;11.968;2023-10-19T00:41:05;1.43;;;0.80;;
11006;SDS011;8186;57.652;11.968;2023-10-19T00:43:37;1.30;;;1.10;;
11006;SDS011;8186;57.652;11.968;2023-10-19T00:46:08;2.40;;;1.10;;
11006;SDS011;8186;57.652;11.968;2023-10-19T00:48:40;1.00;;;0.80;;
11006;SDS011;8186;57.652;11.968;2023-10-19T00:51:12;1.07;;;0.90;;
11006;SDS011;8186;57.652;11.968;2023-10-19T00:53:52;1.23;;;1.00;;
11006;SDS011;8186;57.652;11.968;2023-10-19T00:56:20;2.53;;;1.20;;
11006;SDS011;8186;57.652;11.968;2023-10-19T00:58:49;0.90;;;0.90;;
11006;SDS011;8186;57.652;11.968;2023-10-19T01:01:19;1.23;;;0.90;;
11006;SDS011;8186;57.652;11.968;2023-10-19T01:03:49;2.00;;;1.10;;
11006;SDS011;8186;57.652;11.968;2023-10-19T01:06:19;1.50;;;1.20;;
11006;SDS011;8186;57.652;11.968;2023-10-19T01:08:47;2.70;;;1.00;;
11006;SDS011;8186;57.652;11.968;2023-10-19T01:11:16;3.37;;;1.30;;
11006;SDS011;8186;57.652;11.968;2023-10-19T01:13:46;2.23;;;1.23;;
11006;SDS011;8186;57.652;11.968;2023-10-19T01:16:13;2.07;;;1.47;;
11006;SDS011;8186;57.652;11.968;2023-10-19T01:18:47;1.60;;;1.40;;
11006;SDS011;8186;57.652;11.968;2023-10-19T01:21:20;2.10;;;1.40;;
11006;SDS011;8186;57.652;11.968;2023-10-19T01:23:54;2.37;;;1.30;;
11006;SDS011;8186;57.652;11.968;2023-10-19T01:26:21;2.63;;;1.30;;
11006;SDS011;8186;57.652;11.968;2023-10-19T01:28:51;2.23;;;1.03;;
11006;SDS011;8186;57.652;11.968;2023-10-19T01:31:20;3.23;;;1.30;;
11006;SDS011;8186;57.652;11.968;2023-10-19T01:33:56;1.93;;;1.37;;
11006;SDS011;8186;57.652;11.968;2023-10-19T01:36:24;1.90;;;1.13;;
11006;SDS011;8186;57.652;11.968;2023-10-19T01:38:52;2.00;;;1.10;;
11006;SDS011;8186;57.652;11.968;2023-10-19T01:41:21;2.73;;;1.10;;
11006;SDS011;8186;57.652;11.968;2023-10-19T01:43:49;3.80;;;1.57;;
11006;SDS011;8186;57.652;11.968;2023-10-19T01:46:18;3.67;;;1.60;;
11006;SDS011;8186;57.652;11.968;2023-10-19T01:48:50;3.43;;;1.43;;
11006;SDS011;8186;57.652;11.968;2023-10-19T01:51:20;1.80;;;1.23;;
11006;SDS011;8186;57.652;11.968;2023-10-19T01:53:48;2.87;;;1.10;;
11006;SDS011;8186;57.652;11.968;2023-10-19T01:56:14;2.80;;;1.40;;
11006;SDS011;8186;57.652;11.968;2023-10-19T01:58:44;2.20;;;1.17;;
11006;SDS011;8186;57.652;11.968;2023-10-19T02:01:13;2.50;;;1.40;;
11006;SDS011;8186;57.652;11.968;2023-10-19T02:03:45;1.30;;;1.20;;
11006;SDS011;8186;57.652;11.968;2023-10-19T02:06:17;2.37;;;1.13;;
11006;SDS011;8186;57.652;11.968;2023-10-19T02:08:45;2.20;;;1.60;;
11006;SDS011;8186;57.652;11.968;2023-10-19T02:11:15;2.30;;;1.13;;
11006;SDS011;8186;57.652;11.968;2023-10-19T02:13:44;2.53;;;1.20;;
11006;SDS011;8186;57.652;11.968;2023-10-19T02:16:13;3.10;;;1.80;;
11006;SDS011;8186;57.652;11.968;2023-10-19T02:18:41;3.10;;;1.30;;
11006;SDS011;8186;57.652;11.968;2023-10-19T02:21:08;3.17;;;1.37;;
11006;SDS011;8186;57.652;11.968;2023-10-19T02:23:37;1.50;;;1.30;;
11006;SDS011;8186;57.652;11.968;2023-10-19T02:26:07;1.63;;;1.13;;
11006;SDS011;8186;57.652;11.968;2023-10-19T02:28:33;2.47;;;1.60;;
11006;SDS011;8186;57.652;11.968;2023-10-19T02:31:05;2.90;;;1.30;;
11006;SDS011;8186;57.652;11.968;2023-10-19T02:33:41;1.73;;;1.17;;
11006;SDS011;8186;57.652;11.968;2023-10-19T02:36:13;3.20;;;1.17;;
11006;SDS011;8186;57.652;11.968;2023-10-19T02:38:41;2.67;;;1.40;;
11006;SDS011;8186;57.652;11.968;2023-10-19T02:41:09;4.23;;;1.33;;
11006;SDS011;8186;57.652;11.968;2023-10-19T02:43:36;1.27;;;1.10;;
11006;SDS011;8186;57.652;11.968;2023-10-19T02:46:05;3.20;;;1.50;;
11006;SDS011;8186;57.652;11.968;2023-10-19T02:48:32;1.90;;;1.27;;
11006;SDS011;8186;57.652;11.968;2023-10-19T02:51:03;3.67;;;1.50;;
11006;SDS011;8186;57.652;11.968;2023-10-19T02:53:36;2.60;;;1.30;;
11006;SDS011;8186;57.652;11.968;2023-10-19T02:56:11;1.50;;;1.40;;
11006;SDS011;8186;57.652;11.968;2023-10-19T02:58:40;1.70;;;1.30;;
11006;SDS011;8186;57.652;11.968;2023-10-19T03:01:14;2.00;;;1.20;;
11006;SDS011;8186;57.652;11.968;2023-10-19T03:03:42;3.37;;;1.40;;
11006;SDS011;8186;57.652;11.968;2023-10-19T03:06:11;1.40;;;1.10;;
11006;SDS011;8186;57.652;11.968;2023-10-19T03:08:38;3.87;;;1.73;;
11006;SDS011;8186;57.652;11.968;2023-10-19T03:11:04;3.67;;;1.53;;
11006;SDS011;8186;57.652;11.968;2023-10-19T03:13:30;2.17;;;1.37;;
11006;SDS011;8186;57.652;11.968;2023-10-19T03:15:59;2.90;;;1.73;;
11006;SDS011;8186;57.652;11.968;2023-10-19T03:18:29;2.17;;;1.40;;
11006;SDS011;8186;57.652;11.968;2023-10-19T03:20:56;2.90;;;1.40;;
11006;SDS011;8186;57.652;11.968;2023-10-19T03:23:23;3.00;;;1.40;;
11006;SDS011;8186;57.652;11.968;2023-10-19T03:25:53;2.33;;;1.30;;
11006;SDS011;8186;57.652;11.968;2023-10-19T03:28:38;3.60;;;1.60;;
11006;SDS011;8186;57.652;11.968;2023-10-19T03:31:10;2.23;;;1.30;;
11006;SDS011;8186;57.652;11.968;2023-10-19T03:33:44;4.47;;;1.47;;
11006;SDS011;8186;57.652;11.968;2023-10-19T03:36:13;1.60;;;1.17;;
11006;SDS011;8186;57.652;11.968;2023-10-19T03:38:41;1.50;;;1.37;;
11006;SDS011;8186;57.652;11.968;2023-10-19T03:41:09;3.83;;;1.43;;
11006;SDS011;8186;57.652;11.968;2023-10-19T03:43:36;2.80;;;1.37;;
11006;SDS011;8186;57.652;11.968;2023-10-19T03:46:05;2.80;;;1.60;;
11006;SDS011;8186;57.652;11.968;2023-10-19T03:48:45;5.60;;;1.70;;
11006;SDS011;8186;57.652;11.968;2023-10-19T03:51:12;3.80;;;1.50;;
11006;SDS011;8186;57.652;11.968;2023-10-19T03:53:41;4.83;;;1.40;;
11006;SDS011;8186;57.652;11.968;2023-10-19T03:56:12;2.30;;;1.50;;
11006;SDS011;8186;57.652;11.968;2023-10-19T03:58:39;2.73;;;1.33;;
11006;SDS011;8186;57.652;11.968;2023-10-19T04:01:09;1.93;;;1.50;;
11006;SDS011;8186;57.652;11.968;2023-10-19T04:03:36;3.57;;;1.50;;
11006;SDS011;8186;57.652;11.968;2023-10-19T04:06:05;1.73;;;1.40;;
11006;SDS011;8186;57.652;11.968;2023-10-19T04:08:38;2.13;;;1.23;;
11006;SDS011;8186;57.652;11.968;2023-10-19T04:11:05;3.30;;;1.10;;
11006;SDS011;8186;57.652;11.968;2023-10-19T04:13:36;2.47;;;1.50;;
11006;SDS011;8186;57.652;11.968;2023-10-19T04:16:04;3.77;;;1.30;;
11006;SDS011;8186;57.652;11.968;2023-10-19T04:18:33;2.63;;;1.40;;
11006;SDS011;8186;57.652;11.968;2023-10-19T04:21:04;4.80;;;1.30;;
11006;SDS011;8186;57.652;11.968;2023-10-19T04:23:31;1.40;;;1.10;;
11006;SDS011;8186;57.652;11.968;2023-10-19T04:26:01;2.03;;;1.30;;
11006;SDS011;8186;57.652;11.968;2023-10-19T04:28:36;1.60;;;1.37;;
11006;SDS011;8186;57.652;11.968;2023-10-19T04:31:10;2.90;;;1.40;;
11006;SDS011;8186;57.652;11.968;2023-10-19T04:33:40;3.90;;;1.20;;
11006;SDS011;8186;57.652;11.968;2023-10-19T04:36:13;3.10;;;1.20;;
11006;SDS011;8186;57.652;11.968;2023-10-19T04:38:40;1.43;;;1.20;;
11006;SDS011;8186;57.652;11.968;2023-10-19T04:41:09;1.67;;;1.40;;
11006;SDS011;8186;57.652;11.968;2023-10-19T04:43:37;1.70;;;1.20;;
11006;SDS011;8186;57.652;11.968;2023-10-19T04:46:05;1.67;;;1.10;;
11006;SDS011;8186;57.652;11.968;2023-10-19T04:48:36;1.33;;;0.97;;
11006;SDS011;8186;57.652;11.968;2023-10-19T04:51:05;4.90;;;1.30;;
11006;SDS011;8186;57.652;11.968;2023-10-19T04:53:36;2.00;;;1.20;;
11006;SDS011;8186;57.652;11.968;2023-10-19T04:56:03;1.87;;;1.20;;
11006;SDS011;8186;57.652;11.968;2023-10-19T04:58:32;2.60;;;1.20;;
11006;SDS011;8186;57.652;11.968;2023-10-19T05:00:59;1.20;;;1.00;;
11006;SDS011;8186;57.652;11.968;2023-10-19T05:03:27;2.70;;;1.17;;
11006;SDS011;8186;57.652;11.968;2023-10-19T05:05:54;1.53;;;1.20;;
11006;SDS011;8186;57.652;11.968;2023-10-19T05:08:22;2.47;;;1.30;;
11006;SDS011;8186;57.652;11.968;2023-10-19T05:10:52;1.40;;;1.20;;
11006;SDS011;8186;57.652;11.968;2023-10-19T05:13:20;2.00;;;1.30;;
11006;SDS011;8186;57.652;11.968;2023-10-19T05:15:48;2.40;;;1.20;;
11006;SDS011;8186;57.652;11.968;2023-10-19T05:18:15;1.20;;;1.10;;
11006;SDS011;8186;57.652;11.968;2023-10-19T05:20:42;2.70;;;1.40;;
11006;SDS011;8186;57.652;11.968;2023-10-19T05:23:08;2.93;;;1.30;;
11006;SDS011;8186;57.652;11.968;2023-10-19T05:25:35;3.07;;;1.63;;
11006;SDS011;8186;57.652;11.968;2023-10-19T05:28:05;2.30;;;1.40;;
11006;SDS011;8186;57.652;11.968;2023-10-19T05:30:33;1.93;;;1.40;;
11006;SDS011;8186;57.652;11.968;2023-10-19T05:33:01;1.77;;;1.30;;
11006;SDS011;8186;57.652;11.968;2023-10-19T05:35:29;1.63;;;1.20;;
11006;SDS011;8186;57.652;11.968;2023-10-19T05:38:00;2.57;;;1.40;;
11006;SDS011;8186;57.652;11.968;2023-10-19T05:40:28;2.40;;;1.10;;
11006;SDS011;8186;57.652;11.968;2023-10-19T05:42:56;3.27;;;1.53;;
11006;SDS011;8186;57.652;11.968;2023-10-19T05:45:27;3.33;;;1.43;;
11006;SDS011;8186;57.652;11.968;2023-10-19T05:47:55;6.10;;;1.53;;
11006;SDS011;8186;57.652;11.968;2023-10-19T05:50:22;1.63;;;1.20;;
11006;SDS011;8186;57.652;11.968;2023-10-19T05:52:49;2.27;;;1.40;;
11006;SDS011;8186;57.652;11.968;2023-10-19T05:55:17;1.67;;;1.30;;
11006;SDS011;8186;57.652;11.968;2023-10-19T05:57:46;2.40;;;1.60;;
11006;SDS011;8186;57.652;11.968;2023-10-19T06:00:13;3.67;;;1.43;;
11006;SDS011;8186;57.652;11.968;2023-10-19T06:02:45;3.07;;;1.77;;
11006;SDS011;8186;57.652;11.968;2023-10-19T06:05:12;3.30;;;1.33;;
11006;SDS011;8186;57.652;11.968;2023-10-19T06:07:41;1.50;;;1.40;;
11006;SDS011;8186;57.652;11.968;2023-10-19T06:10:10;2.07;;;1.50;;
11006;SDS011;8186;57.652;11.968;2023-10-19T06:12:41;3.07;;;1.87;;
11006;SDS011;8186;57.652;11.968;2023-10-19T06:15:08;1.97;;;1.57;;
11006;SDS011;8186;57.652;11.968;2023-10-19T06:17:36;2.13;;;1.40;;
11006;SDS011;8186;57.652;11.968;2023-10-19T06:20:05;2.97;;;1.40;;
11006;SDS011;8186;57.652;11.968;2023-10-19T06:22:34;3.13;;;1.67;;
11006;SDS011;8186;57.652;11.968;2023-10-19T06:25:01;2.63;;;1.73;;
11006;SDS011;8186;57.652;11.968;2023-10-19T06:27:29;3.90;;;1.57;;
11006;SDS011;8186;57.652;11.968;2023-10-19T06:29:56;2.23;;;1.40;;
11006;SDS011;8186;57.652;11.968;2023-10-19T06:32:23;1.67;;;1.40;;
11006;SDS011;8186;57.652;11.968;2023-10-19T06:34:52;3.00;;;1.70;;
11006;SDS011;8186;57.652;11.968;2023-10-19T06:37:21;1.93;;;1.30;;
11006;SDS011;8186;57.652;11.968;2023-10-19T06:39:48;2.77;;;1.73;;
11006;SDS011;8186;57.652;11.968;2023-10-19T06:42:16;3.00;;;1.70;;
11006;SDS011;8186;57.652;11.968;2023-10-19T06:44:43;1.63;;;1.50;;
11006;SDS011;8186;57.652;11.968;2023-10-19T06:47:10;3.10;;;1.40;;
11006;SDS011;8186;57.652;11.968;2023-10-19T06:49:39;5.43;;;1.70;;
11006;SDS011;8186;57.652;11.968;2023-10-19T06:52:06;2.40;;;1.85;;
11006;SDS011;8186;57.652;11.968;2023-10-19T06:54:38;3.47;;;1.90;;
11006;SDS011;8186;57.652;11.968;2023-10-19T06:57:05;3.33;;;1.90;;
11006;SDS011;8186;57.652;11.968;2023-10-19T06:59:33;2.60;;;1.63;;
11006;SDS011;8186;57.652;11.968;2023-10-19T07:02:00;3.03;;;1.70;;
11006;SDS011;8186;57.652;11.968;2023-10-19T07:04:28;3.10;;;1.83;;
11006;SDS011;8186;57.652;11.968;2023-10-19T07:06:55;5.00;;;1.80;;
11006;SDS011;8186;57.652;11.968;2023-10-19T07:09:22;2.77;;;1.80;;
11006;SDS011;8186;57.652;11.968;2023-10-19T07:11:51;2.67;;;1.70;;
11006;SDS011;8186;57.652;11.968;2023-10-19T07:14:22;2.87;;;1.87;;
11006;SDS011;8186;57.652;11.968;2023-10-19T07:16:49;3.07;;;1.60;;
11006;SDS011;8186;57.652;11.968;2023-10-19T07:19:17;3.50;;;1.93;;
11006;SDS011;8186;57.652;11.968;2023-10-19T07:21:45;2.20;;;1.40;;
11006;SDS011;8186;57.652;11.968;2023-10-19T07:24:18;3.77;;;1.67;;
11006;SDS011;8186;57.652;11.968;2023-10-19T07:26:50;1.80;;;1.50;;
11006;SDS011;8186;57.652;11.968;2023-10-19T07:29:29;2.67;;;1.73;;
11006;SDS011;8186;57.652;11.968;2023-10-19T07:31:57;3.00;;;1.60;;
11006;SDS011;8186;57.652;11.968;2023-10-19T07:34:24;2.50;;;1.43;;
11006;SDS011;8186;57.652;11.968;2023-10-19T07:36:53;3.20;;;1.50;;
11006;SDS011;8186;57.652;11.968;2023-10-19T07:39:21;2.13;;;1.50;;
11006;SDS011;8186;57.652;11.968;2023-10-19T07:41:48;2.37;;;1.70;;
11006;SDS011;8186;57.652;11.968;2023-10-19T07:44:17;2.73;;;1.80;;
11006;SDS011;8186;57.652;11.968;2023-10-19T07:46:44;2.17;;;1.20;;
11006;SDS011;8186;57.652;11.968;2023-10-19T07:49:11;4.10;;;1.67;;
11006;SDS011;8186;57.652;11.968;2023-10-19T07:51:40;1.27;;;0.93;;
11006;SDS011;8186;57.652;11.968;2023-10-19T07:54:11;2.47;;;1.70;;
11006;SDS011;8186;57.652;11.968;2023-10-19T07:56:38;2.07;;;1.40;;
11006;SDS011;8186;57.652;11.968;2023-10-19T07:59:05;2.20;;;1.60;;
11006;SDS011;8186;57.652;11.968;2023-10-19T08:01:34;3.50;;;1.80;;
11006;SDS011;8186;57.652;11.968;2023-10-19T08:04:01;1.83;;;1.23;;
11006;SDS011;8186;57.652;11.968;2023-10-19T08:06:28;2.03;;;1.50;;
11006;SDS011;8186;57.652;11.968;2023-10-19T08:08:56;2.47;;;1.50;;
11006;SDS011;8186;57.652;11.968;2023-10-19T08:11:23;1.97;;;1.57;;
11006;SDS011;8186;57.652;11.968;2023-10-19T08:13:50;3.87;;;1.80;;
11006;SDS011;8186;57.652;11.968;2023-10-19T08:16:17;1.87;;;1.73;;
11006;SDS011;8186;57.652;11.968;2023-10-19T08:18:45;2.07;;;1.40;;
11006;SDS011;8186;57.652;11.968;2023-10-19T08:21:12;2.70;;;1.50;;
11006;SDS011;8186;57.652;11.968;2023-10-19T08:23:39;2.13;;;1.23;;
11006;SDS011;8186;57.652;11.968;2023-10-19T08:26:07;2.00;;;1.47;;
11006;SDS011;8186;57.652;11.968;2023-10-19T08:28:34;2.50;;;1.40;;
11006;SDS011;8186;57.652;11.968;2023-10-19T08:31:02;2.37;;;1.40;;
11006;SDS011;8186;57.652;11.968;2023-10-19T08:33:30;2.87;;;1.37;;
11006;SDS011;8186;57.652;11.968;2023-10-19T08:36:00;2.37;;;1.37;;
11006;SDS011;8186;57.652;11.968;2023-10-19T08:38:27;1.47;;;1.30;;
11006;SDS011;8186;57.652;11.968;2023-10-19T08:40:54;1.70;;;1.40;;
11006;SDS011;8186;57.652;11.968;2023-10-19T08:43:21;2.93;;;1.13;;
11006;SDS011;8186;57.652;11.968;2023-10-19T08:45:51;1.60;;;1.50;;
11006;SDS011;8186;57.652;11.968;2023-10-19T08:48:18;1.47;;;1.20;;
11006;SDS011;8186;57.652;11.968;2023-10-19T08:50:46;1.13;;;1.03;;
11006;SDS011;8186;57.652;11.968;2023-10-19T08:53:15;1.57;;;1.40;;
11006;SDS011;8186;57.652;11.968;2023-10-19T08:55:44;1.30;;;1.20;;
11006;SDS011;8186;57.652;11.968;2023-10-19T08:58:13;4.30;;;1.20;;
11006;SDS011;8186;57.652;11.968;2023-10-19T09:00:44;1.23;;;1.10;;
11006;SDS011;8186;57.652;11.968;2023-10-19T09:03:14;2.47;;;1.37;;
11006;SDS011;8186;57.652;11.968;2023-10-19T09:05:42;1.80;;;1.10;;
11006;SDS011;8186;57.652;11.968;2023-10-19T09:08:16;3.67;;;1.33;;
11006;SDS011;8186;57.652;11.968;2023-10-19T09:10:44;2.00;;;1.40;;
11006;SDS011;8186;57.652;11.968;2023-10-19T09:13:11;2.93;;;1.20;;
11006;SDS011;8186;57.652;11.968;2023-10-19T09:15:41;1.67;;;1.40;;
11006;SDS011;8186;57.652;11.968;2023-10-19T09:18:14;1.67;;;1.30;;
11006;SDS011;8186;57.652;11.968;2023-10-19T09:20:42;1.73;;;1.20;;
11006;SDS011;8186;57.652;11.968;2023-10-19T09:23:19;1.97;;;1.43;;
11006;SDS011;8186;57.652;11.968;2023-10-19T09:25:47;1.93;;;1.00;;
11006;SDS011;8186;57.652;11.968;2023-10-19T09:28:15;1.53;;;1.10;;
11006;SDS011;8186;57.652;11.968;2023-10-19T09:30:42;1.67;;;1.10;;
11006;SDS011;8186;57.652;11.968;2023-10-19T09:33:10;2.63;;;1.33;;
11006;SDS011;8186;57.652;11.968;2023-10-19T09:35:42;1.20;;;0.97;;
11006;SDS011;8186;57.652;11.968;2023-10-19T09:38:11;1.73;;;1.27;;
11006;SDS011;8186;57.652;11.968;2023-10-19T09:40:39;1.60;;;1.17;;
11006;SDS011;8186;57.652;11.968;2023-10-19T09:43:08;1.60;;;1.10;;
11006;SDS011;8186;57.652;11.968;2023-10-19T09:45:44;1.80;;;0.93;;
11006;SDS011;8186;57.652;11.968;2023-10-19T09:48:16;3.27;;;0.97;;
11006;SDS011;8186;57.652;11.968;2023-10-19T09:50:45;2.33;;;0.80;;
11006;SDS011;8186;57.652;11.968;2023-10-19T09:53:16;1.10;;;1.00;;
11006;SDS011;8186;57.652;11.968;2023-10-19T09:55:45;1.53;;;0.80;;
11006;SDS011;8186;57.652;11.968;2023-10-19T09:58:15;2.67;;;1.00;;
11006;SDS011;8186;57.652;11.968;2023-10-19T10:00:43;3.27;;;1.00;;
11006;SDS011;8186;57.652;11.968;2023-10-19T10:06:12;2.00;;;0.90;;
11006;SDS011;8186;57.652;11.968;2023-10-19T10:08:40;2.63;;;1.00;;
11006;SDS011;8186;57.652;11.968;2023-10-19T10:13:59;1.07;;;0.80;;
11006;SDS011;8186;57.652;11.968;2023-10-19T10:16:27;1.23;;;1.00;;
11006;SDS011;8186;57.652;11.968;2023-10-19T10:18:55;0.83;;;0.80;;
11006;SDS011;8186;57.652;11.968;2023-10-19T10:21:25;0.83;;;0.60;;
11006;SDS011;8186;57.652;11.968;2023-10-19T10:23:52;1.33;;;1.07;;
11006;SDS011;8186;57.652;11.968;2023-10-19T10:26:21;2.30;;;0.77;;
11006;SDS011;8186;57.652;11.968;2023-10-19T10:31:40;0.73;;;0.73;;
11006;SDS011;8186;57.652;11.968;2023-10-19T10:34:08;1.10;;;0.90;;
11006;SDS011;8186;57.652;11.968;2023-10-19T10:39:27;0.80;;;0.70;;
11006;SDS011;8186;57.652;11.968;2023-10-19T10:41:55;0.77;;;0.70;;
11006;SDS011;8186;57.652;11.968;2023-10-19T10:44:38;0.70;;;0.70;;
11006;SDS011;8186;57.652;11.968;2023-10-19T10:47:07;1.27;;;0.80;;
11006;SDS011;8186;57.652;11.968;2023-10-19T10:49:35;0.70;;;0.70;;
11006;SDS011;8186;57.652;11.968;2023-10-19T10:52:13;2.10;;;0.60;;
11006;SDS011;8186;57.652;11.968;2023-10-19T10:54:40;1.03;;;0.70;;
11006;SDS011;8186;57.652;11.968;2023-10-19T10:57:07;0.90;;;0.80;;
11006;SDS011;8186;57.652;11.968;2023-10-19T10:59:34;0.60;;;0.50;;
11006;SDS011;8186;57.652;11.968;2023-10-19T11:02:08;1.77;;;0.70;;
11006;SDS011;8186;57.652;11.968;2023-10-19T11:04:43;1.00;;;0.70;;
11006;SDS011;8186;57.652;11.968;2023-10-19T11:07:17;1.43;;;0.80;;
11006;SDS011;8186;57.652;11.968;2023-10-19T11:09:45;1.23;;;0.80;;
11006;SDS011;8186;57.652;11.968;2023-10-19T11:12:12;2.30;;;0.50;;
11006;SDS011;8186;57.652;11.968;2023-10-19T11:14:50;0.90;;;0.73;;
11006;SDS011;8186;57.652;11.968;2023-10-19T11:17:20;0.83;;;0.60;;
11006;SDS011;8186;57.652;11.968;2023-10-19T11:19:53;1.00;;;0.80;;
11006;SDS011;8186;57.652;11.968;2023-10-19T11:22:22;1.00;;;0.83;;
11006;SDS011;8186;57.652;11.968;2023-10-19T11:24:50;1.10;;;0.60;;
11006;SDS011;8186;57.652;11.968;2023-10-19T11:27:21;1.10;;;0.70;;
11006;SDS011;8186;57.652;11.968;2023-10-19T11:29:54;0.77;;;0.67;;
11006;SDS011;8186;57.652;11.968;2023-10-19T11:32:23;0.60;;;0.60;;
11006;SDS011;8186;57.652;11.968;2023-10-19T11:34:51;1.00;;;0.70;;
11006;SDS011;8186;57.652;11.968;2023-10-19T11:37:18;1.53;;;0.80;;
11006;SDS011;8186;57.652;11.968;2023-10-19T11:39:46;1.20;;;0.80;;
11006;SDS011;8186;57.652;11.968;2023-10-19T11:42:15;0.70;;;0.63;;
11006;SDS011;8186;57.652;11.968;2023-10-19T11:44:43;1.17;;;0.73;;
11006;SDS011;8186;57.652;11.968;2023-10-19T11:47:10;1.10;;;0.80;;
11006;SDS011;8186;57.652;11.968;2023-10-19T11:49:39;1.90;;;0.60;;
11006;SDS011;8186;57.652;11.968;2023-10-19T11:52:06;0.60;;;0.60;;
11006;SDS011;8186;57.652;11.968;2023-10-19T11:54:34;1.00;;;0.80;;
11006;SDS011;8186;57.652;11.968;2023-10-19T11:57:01;1.30;;;0.60;;
11006;SDS011;8186;57.652;11.968;2023-10-19T11:59:28;1.07;;;0.63;;
11006;SDS011;8186;57.652;11.968;2023-10-19T12:01:55;2.13;;;0.80;;
11006;SDS011;8186;57.652;11.968;2023-10-19T12:04:24;0.70;;;0.70;;
11006;SDS011;8186;57.652;11.968;2023-10-19T12:06:52;0.60;;;0.60;;
11006;SDS011;8186;57.652;11.968;2023-10-19T12:09:20;2.67;;;0.60;;
11006;SDS011;8186;57.652;11.968;2023-10-19T12:11:50;0.87;;;0.73;;
11006;SDS011;8186;57.652;11.968;2023-10-19T12:14:18;1.17;;;0.70;;
11006;SDS011;8186;57.652;11.968;2023-10-19T12:16:46;0.50;;;0.50;;
11006;SDS011;8186;57.652;11.968;2023-10-19T12:19:13;0.60;;;0.50;;
11006;SDS011;8186;57.652;11.968;2023-10-19T12:21:42;1.30;;;0.70;;
11006;SDS011;8186;57.652;11.968;2023-10-19T12:24:11;0.80;;;0.63;;
11006;SDS011;8186;57.652;11.968;2023-10-19T12:26:38;1.47;;;1.03;;
11006;SDS011;8186;57.652;11.968;2023-10-19T12:29:05;1.00;;;0.83;;
11006;SDS011;8186;57.652;11.968;2023-10-19T12:31:35;0.90;;;0.80;;
11006;SDS011;8186;57.652;11.968;2023-10-19T12:34:05;1.30;;;0.70;;
11006;SDS011;8186;57.652;11.968;2023-10-19T12:36:33;1.83;;;0.70;;
11006;SDS011;8186;57.652;11.968;2023-10-19T12:39:01;0.97;;;0.70;;
11006;SDS011;8186;57.652;11.968;2023-10-19T12:41:31;0.90;;;0.80;;
11006;SDS011;8186;57.652;11.968;2023-10-19T12:43:59;1.27;;;0.77;;
11006;SDS011;8186;57.652;11.968;2023-10-19T12:46:28;1.93;;;0.90;;
11006;SDS011;8186;57.652;11.968;2023-10-19T12:48:55;0.87;;;0.80;;
11006;SDS011;8186;57.652;11.968;2023-10-19T12:51:23;1.03;;;0.73;;
11006;SDS011;8186;57.652;11.968;2023-10-19T12:53:51;0.67;;;0.67;;
11006;SDS011;8186;57.652;11.968;2023-10-19T12:56:18;1.23;;;0.70;;
11006;SDS011;8186;57.652;11.968;2023-10-19T12:58:46;1.50;;;0.90;;
11006;SDS011;8186;57.652;11.968;2023-10-19T13:01:15;0.80;;;0.77;;
11006;SDS011;8186;57.652;11.968;2023-10-19T13:03:44;0.90;;;0.77;;
11006;SDS011;8186;57.652;11.968;2023-10-19T13:06:11;0.57;;;0.50;;
11006;SDS011;8186;57.652;11.968;2023-10-19T13:08:38;1.47;;;0.60;;
11006;SDS011;8186;57.652;11.968;2023-10-19T13:11:06;2.80;;;0.87;;
11006;SDS011;8186;57.652;11.968;2023-10-19T13:13:33;1.13;;;0.70;;
11006;SDS011;8186;57.652;11.968;2023-10-19T13:16:02;2.40;;;0.80;;
11006;SDS011;8186;57.652;11.968;2023-10-19T13:18:34;0.70;;;0.70;;
11006;SDS011;8186;57.652;11.968;2023-10-19T13:21:01;1.63;;;0.70;;
11006;SDS011;8186;57.652;11.968;2023-10-19T13:23:30;1.20;;;0.70;;
11006;SDS011;8186;57.652;11.968;2023-10-19T13:25:59;1.60;;;0.70;;
11006;SDS011;8186;57.652;11.968;2023-10-19T13:28:34;1.43;;;0.70;;
11006;SDS011;8186;57.652;11.968;2023-10-19T13:31:04;0.70;;;0.70;;
11006;SDS011;8186;57.652;11.968;2023-10-19T13:33:34;0.60;;;0.60;;
11006;SDS011;8186;57.652;11.968;2023-10-19T13:36:01;0.70;;;0.60;;
11006;SDS011;8186;57.652;11.968;2023-10-19T13:38:30;1.83;;;0.80;;
11006;SDS011;8186;57.652;11.968;2023-10-19T13:40:58;1.60;;;0.70;;
11006;SDS011;8186;57.652;11.968;2023-10-19T13:43:24;1.17;;;0.73;;
11006;SDS011;8186;57.652;11.968;2023-10-19T13:45:51;1.20;;;0.70;;
11006;SDS011;8186;57.652;11.968;2023-10-19T13:48:21;1.73;;;0.80;;
11006;SDS011;8186;57.652;11.968;2023-10-19T13:50:48;1.97;;;0.67;;
11006;SDS011;8186;57.652;11.968;2023-10-19T13:53:16;0.80;;;0.60;;
11006;SDS011;8186;57.652;11.968;2023-10-19T13:55:44;1.20;;;0.60;;
11006;SDS011;8186;57.652;11.968;2023-10-19T13:58:11;0.50;;;0.50;;
11006;SDS011;8186;57.652;11.968;2023-10-19T14:00:40;0.80;;;0.80;;
11006;SDS011;8186;57.652;11.968;2023-10-19T14:03:08;1.10;;;0.60;;
11006;SDS011;8186;57.652;11.968;2023-10-19T14:05:38;1.20;;;0.77;;
11006;SDS011;8186;57.652;11.968;2023-10-19T14:08:08;1.30;;;0.50;;
11006;SDS011;8186;57.652;11.968;2023-10-19T14:10:36;1.33;;;0.50;;
11006;SDS011;8186;57.652;11.968;2023-10-19T14:13:06;0.93;;;0.70;;
11006;SDS011;8186;57.652;11.968;2023-10-19T14:15:33;0.70;;;0.70;;
11006;SDS011;8186;57.652;11.968;2023-10-19T14:18:00;1.17;;;0.83;;
11006;SDS011;8186;57.652;11.968;2023-10-19T14:20:28;0.90;;;0.70;;
11006;SDS011;8186;57.652;11.968;2023-10-19T14:22:57;1.03;;;0.90;;
11006;SDS011;8186;57.652;11.968;2023-10-19T14:25:24;1.10;;;0.80;;
11006;SDS011;8186;57.652;11.968;2023-10-19T14:27:52;1.63;;;0.90;;
11006;SDS011;8186;57.652;11.968;2023-10-19T14:30:23;0.80;;;0.70;;
11006;SDS011;8186;57.652;11.968;2023-10-19T14:32:51;1.00;;;0.50;;
11006;SDS011;8186;57.652;11.968;2023-10-19T14:35:18;0.80;;;0.60;;
11006;SDS011;8186;57.652;11.968;2023-10-19T14:37:46;1.30;;;0.73;;
11006;SDS011;8186;57.652;11.968;2023-10-19T14:40:16;0.97;;;0.73;;
11006;SDS011;8186;57.652;11.968;2023-10-19T14:42:45;1.27;;;0.90;;
11006;SDS011;8186;57.652;11.968;2023-10-19T14:45:12;2.07;;;0.70;;
11006;SDS011;8186;57.652;11.968;2023-10-19T14:47:41;1.80;;;0.90;;
11006;SDS011;8186;57.652;11.968;2023-10-19T14:50:17;1.20;;;0.90;;
11006;SDS011;8186;57.652;11.968;2023-10-19T14:52:45;1.30;;;0.60;;
11006;SDS011;8186;57.652;11.968;2023-10-19T14:55:14;0.97;;;0.80;;
11006;SDS011;8186;57.652;11.968;2023-10-19T14:57:42;1.40;;;0.80;;
11006;SDS011;8186;57.652;11.968;2023-10-19T15:00:14;2.60;;;0.90;;
11006;SDS011;8186;57.652;11.968;2023-10-19T15:02:47;0.83;;;0.60;;
11006;SDS011;8186;57.652;11.968;2023-10-19T15:05:15;0.67;;;0.67;;
11006;SDS011;8186;57.652;11.968;2023-10-19T15:07:43;0.80;;;0.60;;
11006;SDS011;8186;57.652;11.968;2023-10-19T15:10:11;2.13;;;0.80;;